sensor_id;sensor_type;location;lat;lon;timestamp;pressure;altitude;pressure_sealevel;temperature;humidity
54588;BME280;40484;50.198;19.576;2023-04-25T00:08:43;100507.83;;;13.33;60.66
54588;BME280;40484;50.198;19.576;2023-04-25T00:13:45;100499.07;;;13.45;60.17
54588;BME280;40484;50.198;19.576;2023-04-25T00:18:47;100501.88;;;13.50;60.04
54588;BME280;40484;50.198;19.576;2023-04-25T00:23:54;100502.57;;;13.48;60.02
54588;BME280;40484;50.198;19.576;2023-04-25T00:28:56;100497.22;;;13.43;60.16
54588;BME280;40484;50.198;19.576;2023-04-25T00:33:57;100505.44;;;13.63;59.66
54588;BME280;40484;50.198;19.576;2023-04-25T00:38:59;100506.55;;;13.47;60.16
54588;BME280;40484;50.198;19.576;2023-04-25T00:44:01;100506.55;;;13.47;60.09
54588;BME280;40484;50.198;19.576;2023-04-25T00:49:04;100505.48;;;13.36;60.38
54588;BME280;40484;50.198;19.576;2023-04-25T00:54:05;100502.79;;;13.20;60.74
54588;BME280;40484;50.198;19.576;2023-04-25T00:59:08;100517.91;;;13.13;60.99
54588;BME280;40484;50.198;19.576;2023-04-25T01:04:10;100505.97;;;13.15;60.94
54588;BME280;40484;50.198;19.576;2023-04-25T01:09:12;100512.29;;;13.28;60.64
54588;BME280;40484;50.198;19.576;2023-04-25T01:14:14;100509.66;;;13.08;61.16
54588;BME280;40484;50.198;19.576;2023-04-25T01:19:16;100519.16;;;13.29;60.29
54588;BME280;40484;50.198;19.576;2023-04-25T01:24:19;100506.60;;;13.17;60.65
54588;BME280;40484;50.198;19.576;2023-04-25T01:29:20;100499.98;;;12.97;61.33
54588;BME280;40484;50.198;19.576;2023-04-25T01:34:22;100503.76;;;13.25;60.65
54588;BME280;40484;50.198;19.576;2023-04-25T01:39:23;100508.05;;;13.32;60.60
54588;BME280;40484;50.198;19.576;2023-04-25T01:44:51;100500.23;;;13.49;60.33
54588;BME280;40484;50.198;19.576;2023-04-25T01:49:52;100502.99;;;13.60;60.06
54588;BME280;40484;50.198;19.576;2023-04-25T01:54:54;100514.55;;;13.67;59.93
54588;BME280;40484;50.198;19.576;2023-04-25T01:59:58;100513.49;;;13.30;60.75
54588;BME280;40484;50.198;19.576;2023-04-25T02:04:59;100517.70;;;13.29;60.93
54588;BME280;40484;50.198;19.576;2023-04-25T02:10:01;100500.23;;;13.22;61.17
54588;BME280;40484;50.198;19.576;2023-04-25T02:15:03;100501.99;;;13.31;61.06
54588;BME280;40484;50.198;19.576;2023-04-25T02:20:04;100505.16;;;13.42;60.63
54588;BME280;40484;50.198;19.576;2023-04-25T02:25:07;100512.13;;;13.23;61.04
54588;BME280;40484;50.198;19.576;2023-04-25T02:30:09;100520.79;;;12.88;61.40
54588;BME280;40484;50.198;19.576;2023-04-25T02:35:10;100505.98;;;13.02;61.29
54588;BME280;40484;50.198;19.576;2023-04-25T02:40:12;100506.06;;;12.83;61.52
54588;BME280;40484;50.198;19.576;2023-04-25T02:45:13;100522.81;;;12.48;62.07
54588;BME280;40484;50.198;19.576;2023-04-25T02:50:15;100521.89;;;12.55;61.51
54588;BME280;40484;50.198;19.576;2023-04-25T02:55:16;100522.37;;;12.63;61.03
54588;BME280;40484;50.198;19.576;2023-04-25T03:00:18;100521.47;;;12.39;61.65
54588;BME280;40484;50.198;19.576;2023-04-25T03:05:20;100521.47;;;12.38;61.59
54588;BME280;40484;50.198;19.576;2023-04-25T03:10:21;100528.02;;;12.47;61.21
54588;BME280;40484;50.198;19.576;2023-04-25T03:15:23;100521.02;;;12.41;61.09
54588;BME280;40484;50.198;19.576;2023-04-25T03:20:24;100522.79;;;12.33;61.37
54588;BME280;40484;50.198;19.576;2023-04-25T03:25:26;100526.14;;;12.13;61.84
54588;BME280;40484;50.198;19.576;2023-04-25T03:30:55;100539.84;;;12.36;61.68
54588;BME280;40484;50.198;19.576;2023-04-25T03:35:56;100544.59;;;12.38;61.22
54588;BME280;40484;50.198;19.576;2023-04-25T03:40:58;100543.73;;;12.24;61.06
54588;BME280;40484;50.198;19.576;2023-04-25T03:46:00;100545.19;;;12.05;61.55
54588;BME280;40484;50.198;19.576;2023-04-25T03:51:01;100560.70;;;11.95;61.28
54588;BME280;40484;50.198;19.576;2023-04-25T03:56:04;100565.61;;;11.59;61.88
54588;BME280;40484;50.198;19.576;2023-04-25T04:01:05;100557.90;;;11.81;61.42
54588;BME280;40484;50.198;19.576;2023-04-25T04:06:08;100562.34;;;11.74;61.55
54588;BME280;40484;50.198;19.576;2023-04-25T04:11:10;100572.11;;;11.77;61.04
54588;BME280;40484;50.198;19.576;2023-04-25T04:16:11;100572.62;;;11.63;61.40
54588;BME280;40484;50.198;19.576;2023-04-25T04:21:13;100582.73;;;11.75;60.65
54588;BME280;40484;50.198;19.576;2023-04-25T04:26:14;100586.00;;;11.59;60.23
54588;BME280;40484;50.198;19.576;2023-04-25T04:31:17;100593.41;;;11.67;59.75
54588;BME280;40484;50.198;19.576;2023-04-25T04:36:20;100595.02;;;11.45;59.29
54588;BME280;40484;50.198;19.576;2023-04-25T04:41:23;100605.04;;;11.42;59.15
54588;BME280;40484;50.198;19.576;2023-04-25T04:46:25;100597.22;;;11.60;58.72
54588;BME280;40484;50.198;19.576;2023-04-25T04:51:26;100606.37;;;11.62;58.55
54588;BME280;40484;50.198;19.576;2023-04-25T04:56:31;100614.10;;;11.57;59.13
54588;BME280;40484;50.198;19.576;2023-04-25T05:01:33;100610.36;;;11.55;58.98
54588;BME280;40484;50.198;19.576;2023-04-25T05:06:38;100610.80;;;11.51;59.09
54588;BME280;40484;50.198;19.576;2023-04-25T05:12:05;100602.64;;;11.82;58.44
54588;BME280;40484;50.198;19.576;2023-04-25T05:17:06;100603.78;;;11.99;57.89
54588;BME280;40484;50.198;19.576;2023-04-25T05:22:09;100609.97;;;11.81;58.55
54588;BME280;40484;50.198;19.576;2023-04-25T05:27:10;100615.08;;;11.68;59.09
54588;BME280;40484;50.198;19.576;2023-04-25T05:32:12;100615.45;;;11.70;59.05
54588;BME280;40484;50.198;19.576;2023-04-25T05:37:13;100619.45;;;11.68;58.81
54588;BME280;40484;50.198;19.576;2023-04-25T05:42:15;100622.62;;;11.60;59.09
54588;BME280;40484;50.198;19.576;2023-04-25T05:47:16;100632.21;;;11.58;59.11
54588;BME280;40484;50.198;19.576;2023-04-25T05:52:18;100626.55;;;11.91;58.42
54588;BME280;40484;50.198;19.576;2023-04-25T05:57:24;100630.70;;;11.92;58.78
54588;BME280;40484;50.198;19.576;2023-04-25T06:02:23;100634.00;;;11.97;58.49
54588;BME280;40484;50.198;19.576;2023-04-25T06:07:24;100640.86;;;11.69;58.40
54588;BME280;40484;50.198;19.576;2023-04-25T06:12:26;100644.26;;;11.60;58.74
54588;BME280;40484;50.198;19.576;2023-04-25T06:17:27;100646.38;;;11.84;58.44
54588;BME280;40484;50.198;19.576;2023-04-25T06:22:29;100647.20;;;11.25;58.63
54588;BME280;40484;50.198;19.576;2023-04-25T06:27:30;100652.80;;;11.58;58.66
54588;BME280;40484;50.198;19.576;2023-04-25T06:32:32;100653.79;;;11.68;58.48
54588;BME280;40484;50.198;19.576;2023-04-25T06:37:35;100652.49;;;11.73;58.50
54588;BME280;40484;50.198;19.576;2023-04-25T06:42:36;100647.06;;;11.75;58.51
54588;BME280;40484;50.198;19.576;2023-04-25T06:47:38;100654.77;;;11.75;58.47
54588;BME280;40484;50.198;19.576;2023-04-25T06:52:39;100662.18;;;11.90;58.23
54588;BME280;40484;50.198;19.576;2023-04-25T06:58:08;100657.99;;;11.93;57.70
54588;BME280;40484;50.198;19.576;2023-04-25T07:03:10;100648.28;;;11.79;57.83
54588;BME280;40484;50.198;19.576;2023-04-25T07:08:11;100656.77;;;11.92;57.31
54588;BME280;40484;50.198;19.576;2023-04-25T07:13:13;100656.91;;;11.97;57.00
54588;BME280;40484;50.198;19.576;2023-04-25T07:18:14;100652.73;;;12.00;56.99
54588;BME280;40484;50.198;19.576;2023-04-25T07:23:16;100660.77;;;12.07;56.72
54588;BME280;40484;50.198;19.576;2023-04-25T07:28:18;100656.05;;;11.98;56.35
54588;BME280;40484;50.198;19.576;2023-04-25T07:33:19;100664.38;;;12.02;56.57
54588;BME280;40484;50.198;19.576;2023-04-25T07:38:21;100656.98;;;11.84;57.59
54588;BME280;40484;50.198;19.576;2023-04-25T07:43:23;100660.87;;;11.98;57.76
54588;BME280;40484;50.198;19.576;2023-04-25T07:48:24;100660.09;;;11.93;57.19
54588;BME280;40484;50.198;19.576;2023-04-25T07:53:26;100659.98;;;12.03;57.24
54588;BME280;40484;50.198;19.576;2023-04-25T07:58:27;100658.89;;;12.09;56.83
54588;BME280;40484;50.198;19.576;2023-04-25T08:03:29;100653.44;;;12.13;56.66
54588;BME280;40484;50.198;19.576;2023-04-25T08:08:30;100648.09;;;12.04;56.68
54588;BME280;40484;50.198;19.576;2023-04-25T08:13:32;100661.03;;;12.03;56.16
54588;BME280;40484;50.198;19.576;2023-04-25T08:18:33;100662.67;;;12.47;56.49
54588;BME280;40484;50.198;19.576;2023-04-25T08:23:35;100654.64;;;12.58;55.35
54588;BME280;40484;50.198;19.576;2023-04-25T08:28:36;100657.56;;;12.57;55.32
54588;BME280;40484;50.198;19.576;2023-04-25T08:33:38;100666.45;;;12.25;54.94
54588;BME280;40484;50.198;19.576;2023-04-25T08:38:39;100670.74;;;11.84;56.01
54588;BME280;40484;50.198;19.576;2023-04-25T08:43:42;100672.05;;;12.04;55.95
54588;BME280;40484;50.198;19.576;2023-04-25T08:49:10;100662.34;;;12.40;56.02
54588;BME280;40484;50.198;19.576;2023-04-25T08:54:13;100667.13;;;12.40;55.19
54588;BME280;40484;50.198;19.576;2023-04-25T08:59:15;100675.97;;;12.33;54.92
54588;BME280;40484;50.198;19.576;2023-04-25T09:04:17;100680.57;;;12.30;54.37
54588;BME280;40484;50.198;19.576;2023-04-25T09:09:19;100684.36;;;12.27;54.94
54588;BME280;40484;50.198;19.576;2023-04-25T09:14:22;100678.25;;;12.32;54.86
54588;BME280;40484;50.198;19.576;2023-04-25T09:19:32;100675.39;;;12.47;54.40
54588;BME280;40484;50.198;19.576;2023-04-25T09:24:41;100677.53;;;12.43;54.66
54588;BME280;40484;50.198;19.576;2023-04-25T09:29:44;100685.24;;;12.62;53.11
54588;BME280;40484;50.198;19.576;2023-04-25T09:34:53;100685.51;;;12.37;53.90
54588;BME280;40484;50.198;19.576;2023-04-25T09:39:56;100677.81;;;12.56;52.44
54588;BME280;40484;50.198;19.576;2023-04-25T09:44:58;100685.60;;;12.66;52.41
54588;BME280;40484;50.198;19.576;2023-04-25T09:50:01;100686.62;;;12.71;52.47
54588;BME280;40484;50.198;19.576;2023-04-25T09:55:03;100687.23;;;12.88;52.62
54588;BME280;40484;50.198;19.576;2023-04-25T10:00:05;100689.27;;;12.75;49.92
54588;BME280;40484;50.198;19.576;2023-04-25T10:05:38;100676.56;;;13.08;50.08
54588;BME280;40484;50.198;19.576;2023-04-25T10:10:40;100675.91;;;13.28;50.18
54588;BME280;40484;50.198;19.576;2023-04-25T10:15:42;100673.81;;;13.43;49.18
54588;BME280;40484;50.198;19.576;2023-04-25T10:20:44;100674.04;;;13.43;48.13
54588;BME280;40484;50.198;19.576;2023-04-25T10:25:46;100675.80;;;13.36;47.38
54588;BME280;40484;50.198;19.576;2023-04-25T10:36:10;100664.24;;;13.24;48.21
54588;BME280;40484;50.198;19.576;2023-04-25T10:41:12;100670.32;;;13.23;47.89
54588;BME280;40484;50.198;19.576;2023-04-25T10:46:19;100650.41;;;13.13;47.99
54588;BME280;40484;50.198;19.576;2023-04-25T10:51:28;100652.38;;;13.54;47.16
54588;BME280;40484;50.198;19.576;2023-04-25T10:56:31;100643.44;;;13.90;46.13
54588;BME280;40484;50.198;19.576;2023-04-25T11:01:46;100647.20;;;13.78;45.31
54588;BME280;40484;50.198;19.576;2023-04-25T11:07:10;100646.23;;;13.71;45.08
54588;BME280;40484;50.198;19.576;2023-04-25T11:12:35;100641.88;;;13.83;44.17
54588;BME280;40484;50.198;19.576;2023-04-25T11:17:36;100640.70;;;13.54;43.20
54588;BME280;40484;50.198;19.576;2023-04-25T11:22:39;100642.45;;;13.61;43.52
54588;BME280;40484;50.198;19.576;2023-04-25T11:27:50;100650.47;;;13.82;43.29
54588;BME280;40484;50.198;19.576;2023-04-25T11:32:53;100652.01;;;13.77;42.78
54588;BME280;40484;50.198;19.576;2023-04-25T11:37:54;100653.26;;;13.91;43.37
54588;BME280;40484;50.198;19.576;2023-04-25T11:42:56;100653.91;;;13.89;43.12
54588;BME280;40484;50.198;19.576;2023-04-25T11:47:57;100658.77;;;13.86;43.32
54588;BME280;40484;50.198;19.576;2023-04-25T11:52:59;100653.78;;;14.10;42.97
54588;BME280;40484;50.198;19.576;2023-04-25T11:58:01;100652.83;;;13.77;43.12
54588;BME280;40484;50.198;19.576;2023-04-25T12:03:04;100659.74;;;13.91;42.75
54588;BME280;40484;50.198;19.576;2023-04-25T12:08:16;100666.02;;;13.35;43.37
54588;BME280;40484;50.198;19.576;2023-04-25T12:13:22;100647.99;;;13.67;43.44
54588;BME280;40484;50.198;19.576;2023-04-25T12:18:24;100652.88;;;13.87;43.75
54588;BME280;40484;50.198;19.576;2023-04-25T12:23:29;100647.86;;;14.00;42.68
54588;BME280;40484;50.198;19.576;2023-04-25T12:28:32;100650.36;;;13.76;42.12
54588;BME280;40484;50.198;19.576;2023-04-25T12:33:58;100650.96;;;13.91;41.55
54588;BME280;40484;50.198;19.576;2023-04-25T12:39:00;100657.68;;;13.76;42.29
54588;BME280;40484;50.198;19.576;2023-04-25T12:44:03;100654.79;;;13.60;42.59
54588;BME280;40484;50.198;19.576;2023-04-25T12:49:05;100653.05;;;13.77;42.34
54588;BME280;40484;50.198;19.576;2023-04-25T12:54:09;100655.20;;;13.86;42.28
54588;BME280;40484;50.198;19.576;2023-04-25T12:59:11;100647.00;;;13.64;41.65
54588;BME280;40484;50.198;19.576;2023-04-25T13:04:12;100644.74;;;14.00;41.32
54588;BME280;40484;50.198;19.576;2023-04-25T13:09:14;100641.27;;;13.70;40.22
54588;BME280;40484;50.198;19.576;2023-04-25T13:14:16;100642.45;;;13.61;40.63
54588;BME280;40484;50.198;19.576;2023-04-25T13:19:18;100653.11;;;13.46;40.69
54588;BME280;40484;50.198;19.576;2023-04-25T13:24:19;100658.08;;;13.49;40.25
54588;BME280;40484;50.198;19.576;2023-04-25T13:29:21;100646.73;;;13.22;40.74
54588;BME280;40484;50.198;19.576;2023-04-25T13:34:22;100653.18;;;13.27;40.20
54588;BME280;40484;50.198;19.576;2023-04-25T13:39:24;100654.62;;;13.44;40.44
54588;BME280;40484;50.198;19.576;2023-04-25T13:44:25;100660.23;;;13.45;39.65
54588;BME280;40484;50.198;19.576;2023-04-25T13:49:27;100654.45;;;13.24;40.26
54588;BME280;40484;50.198;19.576;2023-04-25T13:54:28;100659.01;;;13.29;40.13
54588;BME280;40484;50.198;19.576;2023-04-25T13:59:30;100656.52;;;13.70;39.88
54588;BME280;40484;50.198;19.576;2023-04-25T14:04:32;100663.65;;;13.80;39.70
54588;BME280;40484;50.198;19.576;2023-04-25T14:09:34;100660.30;;;13.80;39.33
54588;BME280;40484;50.198;19.576;2023-04-25T14:14:35;100670.56;;;13.67;39.75
54588;BME280;40484;50.198;19.576;2023-04-25T14:20:03;100664.70;;;13.80;39.44
54588;BME280;40484;50.198;19.576;2023-04-25T14:25:07;100668.37;;;13.86;39.32
54588;BME280;40484;50.198;19.576;2023-04-25T14:30:09;100667.98;;;13.72;39.98
54588;BME280;40484;50.198;19.576;2023-04-25T14:35:11;100672.91;;;13.64;39.78
54588;BME280;40484;50.198;19.576;2023-04-25T14:40:13;100669.71;;;13.81;40.24
54588;BME280;40484;50.198;19.576;2023-04-25T14:45:17;100670.95;;;13.82;40.04
54588;BME280;40484;50.198;19.576;2023-04-25T14:50:18;100684.37;;;13.64;39.85
54588;BME280;40484;50.198;19.576;2023-04-25T14:55:20;100678.14;;;13.76;39.90
54588;BME280;40484;50.198;19.576;2023-04-25T15:00:22;100671.95;;;13.84;40.41
54588;BME280;40484;50.198;19.576;2023-04-25T15:05:23;100685.04;;;13.87;40.49
54588;BME280;40484;50.198;19.576;2023-04-25T15:10:25;100690.07;;;13.87;40.70
54588;BME280;40484;50.198;19.576;2023-04-25T15:15:27;100687.86;;;13.81;40.24
54588;BME280;40484;50.198;19.576;2023-04-25T15:20:28;100691.92;;;13.89;40.45
54588;BME280;40484;50.198;19.576;2023-04-25T15:25:30;100690.95;;;13.84;40.48
54588;BME280;40484;50.198;19.576;2023-04-25T15:30:32;100690.33;;;13.98;40.55
54588;BME280;40484;50.198;19.576;2023-04-25T15:35:33;100696.18;;;13.71;40.90
54588;BME280;40484;50.198;19.576;2023-04-25T15:40:35;100678.81;;;13.99;40.92
54588;BME280;40484;50.198;19.576;2023-04-25T15:45:36;100669.95;;;14.53;40.16
54588;BME280;40484;50.198;19.576;2023-04-25T15:50:38;100674.70;;;14.55;39.86
54588;BME280;40484;50.198;19.576;2023-04-25T15:55:39;100678.34;;;14.63;40.21
54588;BME280;40484;50.198;19.576;2023-04-25T16:00:41;100670.20;;;14.72;40.20
54588;BME280;40484;50.198;19.576;2023-04-25T16:06:07;100680.71;;;14.70;39.82
54588;BME280;40484;50.198;19.576;2023-04-25T16:11:09;100677.80;;;14.58;39.64
54588;BME280;40484;50.198;19.576;2023-04-25T16:16:10;100683.51;;;14.30;40.52
54588;BME280;40484;50.198;19.576;2023-04-25T16:21:12;100677.74;;;14.24;40.23
54588;BME280;40484;50.198;19.576;2023-04-25T16:26:15;100686.68;;;13.90;40.38
54588;BME280;40484;50.198;19.576;2023-04-25T16:31:17;100690.98;;;13.97;40.57
54588;BME280;40484;50.198;19.576;2023-04-25T16:36:18;100698.95;;;13.81;40.92
54588;BME280;40484;50.198;19.576;2023-04-25T16:41:20;100693.62;;;13.75;41.12
54588;BME280;40484;50.198;19.576;2023-04-25T16:46:21;100701.41;;;13.83;41.19
54588;BME280;40484;50.198;19.576;2023-04-25T16:51:23;100691.32;;;14.01;40.44
54588;BME280;40484;50.198;19.576;2023-04-25T16:56:26;100696.67;;;14.06;40.56
54588;BME280;40484;50.198;19.576;2023-04-25T17:01:29;100715.44;;;13.95;40.48
54588;BME280;40484;50.198;19.576;2023-04-25T17:06:33;100712.10;;;14.20;40.27
54588;BME280;40484;50.198;19.576;2023-04-25T17:11:35;100714.45;;;14.17;40.20
54588;BME280;40484;50.198;19.576;2023-04-25T17:16:37;100724.00;;;14.33;40.68
54588;BME280;40484;50.198;19.576;2023-04-25T17:21:39;100724.06;;;14.78;40.29
54588;BME280;40484;50.198;19.576;2023-04-25T17:26:41;100719.67;;;15.20;39.31
54588;BME280;40484;50.198;19.576;2023-04-25T17:31:43;100718.55;;;15.34;39.66
54588;BME280;40484;50.198;19.576;2023-04-25T17:36:45;100730.02;;;15.36;39.89
54588;BME280;40484;50.198;19.576;2023-04-25T17:41:47;100732.41;;;15.31;40.08
54588;BME280;40484;50.198;19.576;2023-04-25T17:47:16;100748.23;;;15.16;39.97
54588;BME280;40484;50.198;19.576;2023-04-25T17:52:17;100759.78;;;15.15;40.26
54588;BME280;40484;50.198;19.576;2023-04-25T17:57:19;100757.20;;;15.07;40.34
54588;BME280;40484;50.198;19.576;2023-04-25T18:02:22;100743.95;;;14.99;40.32
54588;BME280;40484;50.198;19.576;2023-04-25T18:07:24;100760.53;;;14.85;40.56
54588;BME280;40484;50.198;19.576;2023-04-25T18:12:25;100765.07;;;14.67;40.94
54588;BME280;40484;50.198;19.576;2023-04-25T18:17:27;100785.77;;;14.56;41.00
54588;BME280;40484;50.198;19.576;2023-04-25T18:22:28;100784.41;;;14.47;40.89
54588;BME280;40484;50.198;19.576;2023-04-25T18:27:30;100796.36;;;14.33;40.75
54588;BME280;40484;50.198;19.576;2023-04-25T18:32:32;100803.84;;;14.08;41.07
54588;BME280;40484;50.198;19.576;2023-04-25T18:37:34;100811.45;;;14.02;41.27
54588;BME280;40484;50.198;19.576;2023-04-25T18:42:35;100830.87;;;13.73;41.37
54588;BME280;40484;50.198;19.576;2023-04-25T18:47:37;100830.96;;;13.66;41.63
54588;BME280;40484;50.198;19.576;2023-04-25T18:52:39;100839.58;;;13.45;41.62
54588;BME280;40484;50.198;19.576;2023-04-25T18:57:41;100858.64;;;13.17;41.77
54588;BME280;40484;50.198;19.576;2023-04-25T19:02:43;100864.05;;;12.73;42.44
54588;BME280;40484;50.198;19.576;2023-04-25T19:07:45;100864.89;;;12.44;42.68
54588;BME280;40484;50.198;19.576;2023-04-25T19:12:47;100854.14;;;12.62;42.97
54588;BME280;40484;50.198;19.576;2023-04-25T19:17:49;100860.35;;;12.66;42.78
54588;BME280;40484;50.198;19.576;2023-04-25T19:22:52;100864.98;;;12.32;42.93
54588;BME280;40484;50.198;19.576;2023-04-25T19:27:54;100863.09;;;12.37;42.80
54588;BME280;40484;50.198;19.576;2023-04-25T19:33:22;100866.58;;;12.42;42.67
54588;BME280;40484;50.198;19.576;2023-04-25T19:38:24;100876.02;;;12.34;42.63
54588;BME280;40484;50.198;19.576;2023-04-25T19:43:25;100875.77;;;12.09;42.99
54588;BME280;40484;50.198;19.576;2023-04-25T19:48:27;100878.51;;;12.00;43.14
54588;BME280;40484;50.198;19.576;2023-04-25T19:53:28;100874.70;;;12.14;43.07
54588;BME280;40484;50.198;19.576;2023-04-25T19:58:30;100882.66;;;12.38;42.64
54588;BME280;40484;50.198;19.576;2023-04-25T20:03:32;100882.64;;;12.08;42.99
54588;BME280;40484;50.198;19.576;2023-04-25T20:08:36;100883.95;;;11.95;43.46
54588;BME280;40484;50.198;19.576;2023-04-25T20:13:38;100885.25;;;11.83;43.69
54588;BME280;40484;50.198;19.576;2023-04-25T20:18:40;100885.25;;;11.83;43.73
54588;BME280;40484;50.198;19.576;2023-04-25T20:23:41;100888.99;;;11.78;43.82
54588;BME280;40484;50.198;19.576;2023-04-25T20:28:44;100892.52;;;11.81;43.81
54588;BME280;40484;50.198;19.576;2023-04-25T20:33:46;100890.86;;;11.86;43.97
54588;BME280;40484;50.198;19.576;2023-04-25T20:38:47;100894.40;;;11.91;44.01
54588;BME280;40484;50.198;19.576;2023-04-25T20:43:49;100897.44;;;12.04;44.09
54588;BME280;40484;50.198;19.576;2023-04-25T20:48:53;100899.98;;;11.95;44.50
54588;BME280;40484;50.198;19.576;2023-04-25T20:53:54;100908.58;;;11.78;45.43
54588;BME280;40484;50.198;19.576;2023-04-25T20:58:56;100913.18;;;11.72;45.94
54588;BME280;40484;50.198;19.576;2023-04-25T21:03:58;100922.34;;;11.70;46.29
54588;BME280;40484;50.198;19.576;2023-04-25T21:09:00;100916.94;;;11.74;46.31
54588;BME280;40484;50.198;19.576;2023-04-25T21:14:29;100925.68;;;11.69;46.71
54588;BME280;40484;50.198;19.576;2023-04-25T21:19:31;100924.38;;;11.82;46.65
54588;BME280;40484;50.198;19.576;2023-04-25T21:24:33;100938.56;;;11.80;47.00
54588;BME280;40484;50.198;19.576;2023-04-25T21:29:34;100938.22;;;11.58;47.77
54588;BME280;40484;50.198;19.576;2023-04-25T21:34:36;100946.58;;;11.37;48.54
54588;BME280;40484;50.198;19.576;2023-04-25T21:39:37;100946.97;;;11.48;48.47
54588;BME280;40484;50.198;19.576;2023-04-25T21:44:38;100939.94;;;11.18;49.23
54588;BME280;40484;50.198;19.576;2023-04-25T21:49:40;100947.02;;;10.98;49.92
54588;BME280;40484;50.198;19.576;2023-04-25T21:54:42;100961.98;;;10.82;50.48
54588;BME280;40484;50.198;19.576;2023-04-25T21:59:43;100964.05;;;10.99;49.97
54588;BME280;40484;50.198;19.576;2023-04-25T22:04:45;100978.17;;;10.59;50.93
54588;BME280;40484;50.198;19.576;2023-04-25T22:09:47;100975.50;;;10.78;50.59
54588;BME280;40484;50.198;19.576;2023-04-25T22:14:49;100983.76;;;10.62;51.11
54588;BME280;40484;50.198;19.576;2023-04-25T22:19:50;100985.45;;;10.65;51.15
54588;BME280;40484;50.198;19.576;2023-04-25T22:24:52;100991.87;;;10.55;51.03
54588;BME280;40484;50.198;19.576;2023-04-25T22:29:54;100990.39;;;10.45;51.08
54588;BME280;40484;50.198;19.576;2023-04-25T22:34:56;101001.24;;;10.60;51.01
54588;BME280;40484;50.198;19.576;2023-04-25T22:39:58;100995.83;;;10.60;50.91
54588;BME280;40484;50.198;19.576;2023-04-25T22:44:59;100999.40;;;10.76;50.69
54588;BME280;40484;50.198;19.576;2023-04-25T22:50:01;101002.50;;;10.73;50.65
54588;BME280;40484;50.198;19.576;2023-04-25T22:55:05;101011.81;;;10.59;50.96
54588;BME280;40484;50.198;19.576;2023-04-25T23:00:33;101007.27;;;10.59;50.92
54588;BME280;40484;50.198;19.576;2023-04-25T23:05:35;101013.91;;;10.67;50.74
54588;BME280;40484;50.198;19.576;2023-04-25T23:10:38;101013.51;;;10.63;50.52
54588;BME280;40484;50.198;19.576;2023-04-25T23:15:39;101014.12;;;10.65;50.35
54588;BME280;40484;50.198;19.576;2023-04-25T23:20:41;101016.99;;;10.48;50.49
54588;BME280;40484;50.198;19.576;2023-04-25T23:25:43;101025.30;;;10.48;50.30
54588;BME280;40484;50.198;19.576;2023-04-25T23:30:45;101022.74;;;10.31;50.43
54588;BME280;40484;50.198;19.576;2023-04-25T23:35:47;101025.38;;;10.17;50.24
54588;BME280;40484;50.198;19.576;2023-04-25T23:40:48;101022.64;;;10.11;49.46
54588;BME280;40484;50.198;19.576;2023-04-25T23:45:50;101020.78;;;10.14;48.92
54588;BME280;40484;50.198;19.576;2023-04-25T23:50:51;101030.15;;;10.21;48.32
54588;BME280;40484;50.198;19.576;2023-04-25T23:55:53;101040.70;;;10.10;47.21
